sensor_id;sensor_type;location;lat;lon;timestamp;temperature;humidity
38684;DHT22;24910;53.248;-6.134;2023-02-28T00:01:43;9.30;84.80
38684;DHT22;24910;53.248;-6.134;2023-02-28T00:04:12;9.30;84.80
38684;DHT22;24910;53.248;-6.134;2023-02-28T00:06:41;9.30;84.80
38684;DHT22;24910;53.248;-6.134;2023-02-28T00:09:10;9.40;84.90
38684;DHT22;24910;53.248;-6.134;2023-02-28T00:11:41;9.40;85.00
38684;DHT22;24910;53.248;-6.134;2023-02-28T00:14:10;9.40;85.00
38684;DHT22;24910;53.248;-6.134;2023-02-28T00:16:39;9.40;85.00
38684;DHT22;24910;53.248;-6.134;2023-02-28T00:19:08;9.40;85.00
38684;DHT22;24910;53.248;-6.134;2023-02-28T00:21:41;9.40;85.00
38684;DHT22;24910;53.248;-6.134;2023-02-28T00:24:10;9.40;85.00
38684;DHT22;24910;53.248;-6.134;2023-02-28T00:26:41;9.40;85.00
38684;DHT22;24910;53.248;-6.134;2023-02-28T00:29:10;9.40;84.90
38684;DHT22;24910;53.248;-6.134;2023-02-28T00:31:39;9.40;84.70
38684;DHT22;24910;53.248;-6.134;2023-02-28T00:34:08;9.40;84.60
38684;DHT22;24910;53.248;-6.134;2023-02-28T00:36:37;9.40;84.50
38684;DHT22;24910;53.248;-6.134;2023-02-28T00:39:06;9.40;84.40
38684;DHT22;24910;53.248;-6.134;2023-02-28T00:41:35;9.40;84.30
38684;DHT22;24910;53.248;-6.134;2023-02-28T00:44:06;9.40;84.30
38684;DHT22;24910;53.248;-6.134;2023-02-28T00:46:35;9.40;84.10
38684;DHT22;24910;53.248;-6.134;2023-02-28T00:49:04;9.40;84.00
38684;DHT22;24910;53.248;-6.134;2023-02-28T00:51:35;9.40;83.90
38684;DHT22;24910;53.248;-6.134;2023-02-28T00:54:05;9.40;83.80
38684;DHT22;24910;53.248;-6.134;2023-02-28T00:56:34;9.40;83.70
38684;DHT22;24910;53.248;-6.134;2023-02-28T00:59:05;9.40;83.70
38684;DHT22;24910;53.248;-6.134;2023-02-28T01:01:35;9.40;83.70
38684;DHT22;24910;53.248;-6.134;2023-02-28T01:04:04;9.40;83.60
38684;DHT22;24910;53.248;-6.134;2023-02-28T01:06:33;9.40;83.50
38684;DHT22;24910;53.248;-6.134;2023-02-28T01:09:04;9.40;83.30
38684;DHT22;24910;53.248;-6.134;2023-02-28T01:11:33;9.40;83.30
38684;DHT22;24910;53.248;-6.134;2023-02-28T01:14:03;9.40;83.20
38684;DHT22;24910;53.248;-6.134;2023-02-28T01:16:34;9.40;83.20
38684;DHT22;24910;53.248;-6.134;2023-02-28T01:19:03;9.40;83.10
38684;DHT22;24910;53.248;-6.134;2023-02-28T01:21:32;9.40;83.10
38684;DHT22;24910;53.248;-6.134;2023-02-28T01:24:03;9.40;83.20
38684;DHT22;24910;53.248;-6.134;2023-02-28T01:26:33;9.40;83.20
38684;DHT22;24910;53.248;-6.134;2023-02-28T01:29:02;9.40;83.20
38684;DHT22;24910;53.248;-6.134;2023-02-28T01:31:31;9.40;83.20
38684;DHT22;24910;53.248;-6.134;2023-02-28T01:34:02;9.40;83.20
38684;DHT22;24910;53.248;-6.134;2023-02-28T01:36:31;9.40;83.10
38684;DHT22;24910;53.248;-6.134;2023-02-28T01:39:00;9.40;83.20
38684;DHT22;24910;53.248;-6.134;2023-02-28T01:41:31;9.40;83.00
38684;DHT22;24910;53.248;-6.134;2023-02-28T01:44:04;9.40;82.90
38684;DHT22;24910;53.248;-6.134;2023-02-28T01:46:35;9.40;82.90
38684;DHT22;24910;53.248;-6.134;2023-02-28T01:49:09;9.40;82.90
38684;DHT22;24910;53.248;-6.134;2023-02-28T01:51:42;9.40;82.90
38684;DHT22;24910;53.248;-6.134;2023-02-28T01:54:16;9.40;82.80
38684;DHT22;24910;53.248;-6.134;2023-02-28T01:56:49;9.40;82.80
38684;DHT22;24910;53.248;-6.134;2023-02-28T01:59:23;9.40;82.80
38684;DHT22;24910;53.248;-6.134;2023-02-28T02:01:53;9.30;82.70
38684;DHT22;24910;53.248;-6.134;2023-02-28T02:04:27;9.30;82.90
38684;DHT22;24910;53.248;-6.134;2023-02-28T02:07:01;9.30;83.00
38684;DHT22;24910;53.248;-6.134;2023-02-28T02:09:30;9.30;83.20
38684;DHT22;24910;53.248;-6.134;2023-02-28T02:12:02;9.30;83.30
38684;DHT22;24910;53.248;-6.134;2023-02-28T02:14:47;9.30;83.50
38684;DHT22;24910;53.248;-6.134;2023-02-28T02:17:25;9.30;83.60
38684;DHT22;24910;53.248;-6.134;2023-02-28T02:26:36;9.30;83.60
38684;DHT22;24910;53.248;-6.134;2023-02-28T02:32:46;9.30;83.40
38684;DHT22;24910;53.248;-6.134;2023-02-28T02:35:23;9.30;83.30
38684;DHT22;24910;53.248;-6.134;2023-02-28T02:38:00;9.40;83.20
38684;DHT22;24910;53.248;-6.134;2023-02-28T02:40:35;9.40;83.30
38684;DHT22;24910;53.248;-6.134;2023-02-28T02:43:07;9.40;83.40
38684;DHT22;24910;53.248;-6.134;2023-02-28T02:45:43;9.40;83.40
38684;DHT22;24910;53.248;-6.134;2023-02-28T02:48:17;9.40;83.40
38684;DHT22;24910;53.248;-6.134;2023-02-28T02:50:52;9.40;83.50
38684;DHT22;24910;53.248;-6.134;2023-02-28T02:53:26;9.40;84.50
38684;DHT22;24910;53.248;-6.134;2023-02-28T02:56:01;9.40;83.70
38684;DHT22;24910;53.248;-6.134;2023-02-28T02:58:37;9.40;83.80
38684;DHT22;24910;53.248;-6.134;2023-02-28T03:01:14;9.40;83.80
38684;DHT22;24910;53.248;-6.134;2023-02-28T03:03:46;9.40;83.80
38684;DHT22;24910;53.248;-6.134;2023-02-28T03:06:17;9.30;83.60
38684;DHT22;24910;53.248;-6.134;2023-02-28T03:08:46;9.30;83.70
38684;DHT22;24910;53.248;-6.134;2023-02-28T03:11:15;9.40;83.70
38684;DHT22;24910;53.248;-6.134;2023-02-28T03:13:54;9.30;83.60
38684;DHT22;24910;53.248;-6.134;2023-02-28T03:16:59;9.40;83.70
38684;DHT22;24910;53.248;-6.134;2023-02-28T03:19:45;9.40;83.80
38684;DHT22;24910;53.248;-6.134;2023-02-28T03:25:26;9.30;83.90
38684;DHT22;24910;53.248;-6.134;2023-02-28T03:28:03;9.30;83.90
38684;DHT22;24910;53.248;-6.134;2023-02-28T03:30:39;9.30;84.00
38684;DHT22;24910;53.248;-6.134;2023-02-28T03:33:12;9.30;83.90
38684;DHT22;24910;53.248;-6.134;2023-02-28T03:35:46;9.30;84.10
38684;DHT22;24910;53.248;-6.134;2023-02-28T03:38:22;9.30;84.10
38684;DHT22;24910;53.248;-6.134;2023-02-28T03:41:00;9.30;84.10
38684;DHT22;24910;53.248;-6.134;2023-02-28T03:43:35;9.30;84.10
38684;DHT22;24910;53.248;-6.134;2023-02-28T03:46:09;9.40;84.20
38684;DHT22;24910;53.248;-6.134;2023-02-28T03:48:42;9.30;84.10
38684;DHT22;24910;53.248;-6.134;2023-02-28T03:51:16;9.30;84.20
38684;DHT22;24910;53.248;-6.134;2023-02-28T03:53:50;9.30;85.10
38684;DHT22;24910;53.248;-6.134;2023-02-28T03:56:23;9.30;84.20
38684;DHT22;24910;53.248;-6.134;2023-02-28T03:59:00;9.30;84.10
38684;DHT22;24910;53.248;-6.134;2023-02-28T04:01:33;9.30;84.20
38684;DHT22;24910;53.248;-6.134;2023-02-28T04:04:04;9.30;84.10
38684;DHT22;24910;53.248;-6.134;2023-02-28T04:06:34;9.30;84.00
38684;DHT22;24910;53.248;-6.134;2023-02-28T04:09:06;9.30;83.90
38684;DHT22;24910;53.248;-6.134;2023-02-28T04:11:36;9.30;83.90
38684;DHT22;24910;53.248;-6.134;2023-02-28T04:14:07;9.40;83.80
38684;DHT22;24910;53.248;-6.134;2023-02-28T04:16:38;9.40;83.70
38684;DHT22;24910;53.248;-6.134;2023-02-28T04:19:09;9.40;83.60
38684;DHT22;24910;53.248;-6.134;2023-02-28T04:21:39;9.40;83.40
38684;DHT22;24910;53.248;-6.134;2023-02-28T04:24:13;9.50;83.40
38684;DHT22;24910;53.248;-6.134;2023-02-28T04:26:44;9.50;83.30
38684;DHT22;24910;53.248;-6.134;2023-02-28T04:29:15;9.50;83.30
38684;DHT22;24910;53.248;-6.134;2023-02-28T04:31:46;9.40;83.20
38684;DHT22;24910;53.248;-6.134;2023-02-28T04:34:16;9.40;83.20
38684;DHT22;24910;53.248;-6.134;2023-02-28T04:36:46;9.40;83.30
38684;DHT22;24910;53.248;-6.134;2023-02-28T04:39:36;9.40;83.20
38684;DHT22;24910;53.248;-6.134;2023-02-28T04:42:06;9.40;83.20
38684;DHT22;24910;53.248;-6.134;2023-02-28T04:44:35;9.40;83.20
38684;DHT22;24910;53.248;-6.134;2023-02-28T04:47:04;9.40;83.10
38684;DHT22;24910;53.248;-6.134;2023-02-28T04:49:33;9.30;83.10
38684;DHT22;24910;53.248;-6.134;2023-02-28T04:52:02;9.30;83.10
38684;DHT22;24910;53.248;-6.134;2023-02-28T04:54:31;9.30;82.90
38684;DHT22;24910;53.248;-6.134;2023-02-28T04:57:02;9.20;82.40
38684;DHT22;24910;53.248;-6.134;2023-02-28T04:59:31;9.20;82.00
38684;DHT22;24910;53.248;-6.134;2023-02-28T05:02:01;9.20;81.40
38684;DHT22;24910;53.248;-6.134;2023-02-28T05:04:34;9.10;80.90
38684;DHT22;24910;53.248;-6.134;2023-02-28T05:07:03;9.10;80.40
38684;DHT22;24910;53.248;-6.134;2023-02-28T05:09:32;9.10;80.00
38684;DHT22;24910;53.248;-6.134;2023-02-28T05:12:03;9.10;79.50
38684;DHT22;24910;53.248;-6.134;2023-02-28T05:14:32;9.10;78.90
38684;DHT22;24910;53.248;-6.134;2023-02-28T05:17:01;9.10;78.60
38684;DHT22;24910;53.248;-6.134;2023-02-28T05:19:30;9.00;78.40
38684;DHT22;24910;53.248;-6.134;2023-02-28T05:21:59;9.00;78.40
38684;DHT22;24910;53.248;-6.134;2023-02-28T05:24:30;9.00;78.50
38684;DHT22;24910;53.248;-6.134;2023-02-28T05:26:59;8.90;78.90
38684;DHT22;24910;53.248;-6.134;2023-02-28T05:29:29;8.90;79.30
38684;DHT22;24910;53.248;-6.134;2023-02-28T05:31:58;8.80;79.80
38684;DHT22;24910;53.248;-6.134;2023-02-28T05:34:27;8.70;80.20
38684;DHT22;24910;53.248;-6.134;2023-02-28T05:36:56;8.70;80.50
38684;DHT22;24910;53.248;-6.134;2023-02-28T05:39:25;8.70;80.70
38684;DHT22;24910;53.248;-6.134;2023-02-28T05:41:54;8.70;80.90
38684;DHT22;24910;53.248;-6.134;2023-02-28T05:44:24;8.70;81.00
38684;DHT22;24910;53.248;-6.134;2023-02-28T05:46:54;8.60;81.10
38684;DHT22;24910;53.248;-6.134;2023-02-28T05:49:23;8.60;81.20
38684;DHT22;24910;53.248;-6.134;2023-02-28T05:51:52;8.60;81.40
38684;DHT22;24910;53.248;-6.134;2023-02-28T05:54:21;8.70;81.40
38684;DHT22;24910;53.248;-6.134;2023-02-28T05:56:50;8.70;81.50
38684;DHT22;24910;53.248;-6.134;2023-02-28T05:59:19;8.70;81.50
38684;DHT22;24910;53.248;-6.134;2023-02-28T06:01:48;8.70;81.50
38684;DHT22;24910;53.248;-6.134;2023-02-28T06:04:20;8.70;81.70
38684;DHT22;24910;53.248;-6.134;2023-02-28T06:06:58;8.80;81.70
38684;DHT22;24910;53.248;-6.134;2023-02-28T06:09:27;8.80;81.70
38684;DHT22;24910;53.248;-6.134;2023-02-28T06:11:58;8.80;81.60
38684;DHT22;24910;53.248;-6.134;2023-02-28T06:14:27;8.90;81.70
38684;DHT22;24910;53.248;-6.134;2023-02-28T06:16:56;8.90;81.70
38684;DHT22;24910;53.248;-6.134;2023-02-28T06:19:27;9.00;81.80
38684;DHT22;24910;53.248;-6.134;2023-02-28T06:21:57;9.00;81.80
38684;DHT22;24910;53.248;-6.134;2023-02-28T06:24:27;9.00;81.80
38684;DHT22;24910;53.248;-6.134;2023-02-28T06:26:59;9.10;82.00
38684;DHT22;24910;53.248;-6.134;2023-02-28T06:29:33;9.00;82.10
38684;DHT22;24910;53.248;-6.134;2023-02-28T06:32:02;9.00;82.10
38684;DHT22;24910;53.248;-6.134;2023-02-28T06:34:33;9.00;82.30
38684;DHT22;24910;53.248;-6.134;2023-02-28T06:37:02;9.00;82.40
38684;DHT22;24910;53.248;-6.134;2023-02-28T06:39:32;9.00;82.50
38684;DHT22;24910;53.248;-6.134;2023-02-28T06:42:01;8.90;82.50
38684;DHT22;24910;53.248;-6.134;2023-02-28T06:44:31;8.90;82.70
38684;DHT22;24910;53.248;-6.134;2023-02-28T06:47:03;8.90;82.80
38684;DHT22;24910;53.248;-6.134;2023-02-28T06:49:36;8.90;83.00
38684;DHT22;24910;53.248;-6.134;2023-02-28T06:52:06;8.80;83.00
38684;DHT22;24910;53.248;-6.134;2023-02-28T06:54:36;8.90;83.20
38684;DHT22;24910;53.248;-6.134;2023-02-28T06:57:06;8.90;83.30
38684;DHT22;24910;53.248;-6.134;2023-02-28T06:59:35;8.80;83.30
38684;DHT22;24910;53.248;-6.134;2023-02-28T07:02:04;8.80;83.50
38684;DHT22;24910;53.248;-6.134;2023-02-28T07:04:35;8.80;83.50
38684;DHT22;24910;53.248;-6.134;2023-02-28T07:07:07;8.80;83.50
38684;DHT22;24910;53.248;-6.134;2023-02-28T07:09:36;8.80;83.60
38684;DHT22;24910;53.248;-6.134;2023-02-28T07:12:05;8.80;83.70
38684;DHT22;24910;53.248;-6.134;2023-02-28T07:14:36;8.80;83.80
38684;DHT22;24910;53.248;-6.134;2023-02-28T07:17:07;8.80;83.90
38684;DHT22;24910;53.248;-6.134;2023-02-28T07:19:38;8.80;84.00
38684;DHT22;24910;53.248;-6.134;2023-02-28T07:22:07;8.80;84.00
38684;DHT22;24910;53.248;-6.134;2023-02-28T07:24:36;8.80;84.00
38684;DHT22;24910;53.248;-6.134;2023-02-28T07:27:06;8.80;84.10
38684;DHT22;24910;53.248;-6.134;2023-02-28T07:29:35;8.80;84.20
38684;DHT22;24910;53.248;-6.134;2023-02-28T07:32:05;8.80;84.30
38684;DHT22;24910;53.248;-6.134;2023-02-28T07:34:34;8.80;84.30
38684;DHT22;24910;53.248;-6.134;2023-02-28T07:37:04;8.80;84.40
38684;DHT22;24910;53.248;-6.134;2023-02-28T07:39:33;8.80;84.50
38684;DHT22;24910;53.248;-6.134;2023-02-28T07:42:04;8.80;84.50
38684;DHT22;24910;53.248;-6.134;2023-02-28T07:44:33;8.80;84.60
38684;DHT22;24910;53.248;-6.134;2023-02-28T07:47:03;8.70;84.70
38684;DHT22;24910;53.248;-6.134;2023-02-28T07:49:32;8.70;85.80
38684;DHT22;24910;53.248;-6.134;2023-02-28T07:52:03;8.70;85.00
38684;DHT22;24910;53.248;-6.134;2023-02-28T07:54:33;8.70;85.10
38684;DHT22;24910;53.248;-6.134;2023-02-28T07:57:02;8.60;85.00
38684;DHT22;24910;53.248;-6.134;2023-02-28T07:59:31;8.60;84.90
38684;DHT22;24910;53.248;-6.134;2023-02-28T08:02:00;8.70;84.70
38684;DHT22;24910;53.248;-6.134;2023-02-28T08:04:32;8.70;84.50
38684;DHT22;24910;53.248;-6.134;2023-02-28T08:07:01;8.70;84.40
38684;DHT22;24910;53.248;-6.134;2023-02-28T08:09:31;8.70;84.40
38684;DHT22;24910;53.248;-6.134;2023-02-28T08:12:01;8.60;84.40
38684;DHT22;24910;53.248;-6.134;2023-02-28T08:14:30;8.60;84.50
38684;DHT22;24910;53.248;-6.134;2023-02-28T08:16:59;8.50;84.30
38684;DHT22;24910;53.248;-6.134;2023-02-28T08:19:29;8.50;84.30
38684;DHT22;24910;53.248;-6.134;2023-02-28T08:21:58;8.50;84.10
38684;DHT22;24910;53.248;-6.134;2023-02-28T08:24:27;8.40;83.70
38684;DHT22;24910;53.248;-6.134;2023-02-28T08:26:57;8.30;83.50
38684;DHT22;24910;53.248;-6.134;2023-02-28T08:29:27;8.30;83.30
38684;DHT22;24910;53.248;-6.134;2023-02-28T08:31:57;8.30;83.20
38684;DHT22;24910;53.248;-6.134;2023-02-28T08:34:27;8.30;83.10
38684;DHT22;24910;53.248;-6.134;2023-02-28T08:36:56;8.30;82.70
38684;DHT22;24910;53.248;-6.134;2023-02-28T08:39:25;8.40;82.40
38684;DHT22;24910;53.248;-6.134;2023-02-28T08:41:54;8.30;82.00
38684;DHT22;24910;53.248;-6.134;2023-02-28T08:44:35;8.40;81.80
38684;DHT22;24910;53.248;-6.134;2023-02-28T08:47:05;8.50;81.50
38684;DHT22;24910;53.248;-6.134;2023-02-28T08:49:34;8.50;81.10
38684;DHT22;24910;53.248;-6.134;2023-02-28T08:52:03;8.40;81.00
38684;DHT22;24910;53.248;-6.134;2023-02-28T08:54:32;8.50;80.60
38684;DHT22;24910;53.248;-6.134;2023-02-28T08:57:02;8.50;80.10
38684;DHT22;24910;53.248;-6.134;2023-02-28T08:59:32;8.50;79.60
38684;DHT22;24910;53.248;-6.134;2023-02-28T09:02:05;8.50;79.30
38684;DHT22;24910;53.248;-6.134;2023-02-28T09:04:34;8.60;79.30
38684;DHT22;24910;53.248;-6.134;2023-02-28T09:07:03;8.60;79.20
38684;DHT22;24910;53.248;-6.134;2023-02-28T09:09:32;8.60;79.30
38684;DHT22;24910;53.248;-6.134;2023-02-28T09:12:02;8.60;79.50
38684;DHT22;24910;53.248;-6.134;2023-02-28T09:14:31;8.70;79.70
38684;DHT22;24910;53.248;-6.134;2023-02-28T09:17:00;8.70;79.50
38684;DHT22;24910;53.248;-6.134;2023-02-28T09:19:33;8.70;79.60
38684;DHT22;24910;53.248;-6.134;2023-02-28T09:22:03;8.70;79.70
38684;DHT22;24910;53.248;-6.134;2023-02-28T09:24:32;8.80;79.70
38684;DHT22;24910;53.248;-6.134;2023-02-28T09:27:01;8.80;79.70
38684;DHT22;24910;53.248;-6.134;2023-02-28T09:29:34;8.70;79.60
38684;DHT22;24910;53.248;-6.134;2023-02-28T09:32:03;8.70;79.70
38684;DHT22;24910;53.248;-6.134;2023-02-28T09:34:35;8.70;79.90
38684;DHT22;24910;53.248;-6.134;2023-02-28T09:37:04;8.70;79.90
38684;DHT22;24910;53.248;-6.134;2023-02-28T09:39:33;8.70;79.90
38684;DHT22;24910;53.248;-6.134;2023-02-28T09:42:03;8.70;80.00
38684;DHT22;24910;53.248;-6.134;2023-02-28T09:44:37;8.60;80.10
38684;DHT22;24910;53.248;-6.134;2023-02-28T09:47:12;8.60;80.10
38684;DHT22;24910;53.248;-6.134;2023-02-28T09:49:47;8.70;80.10
38684;DHT22;24910;53.248;-6.134;2023-02-28T09:52:18;8.90;79.90
38684;DHT22;24910;53.248;-6.134;2023-02-28T09:54:47;9.00;78.80
38684;DHT22;24910;53.248;-6.134;2023-02-28T09:57:21;9.00;78.00
38684;DHT22;24910;53.248;-6.134;2023-02-28T10:00:07;9.00;77.80
38684;DHT22;24910;53.248;-6.134;2023-02-28T10:02:52;9.00;77.40
38684;DHT22;24910;53.248;-6.134;2023-02-28T10:05:28;9.00;77.20
38684;DHT22;24910;53.248;-6.134;2023-02-28T10:08:13;8.90;76.70
38684;DHT22;24910;53.248;-6.134;2023-02-28T10:10:45;8.80;77.20
38684;DHT22;24910;53.248;-6.134;2023-02-28T10:13:24;8.80;76.50
38684;DHT22;24910;53.248;-6.134;2023-02-28T10:15:58;8.80;76.90
38684;DHT22;24910;53.248;-6.134;2023-02-28T10:18:31;8.80;77.10
38684;DHT22;24910;53.248;-6.134;2023-02-28T10:21:05;9.00;77.10
38684;DHT22;24910;53.248;-6.134;2023-02-28T10:23:34;9.10;76.60
38684;DHT22;24910;53.248;-6.134;2023-02-28T10:26:11;9.10;76.30
38684;DHT22;24910;53.248;-6.134;2023-02-28T10:28:40;9.10;76.20
38684;DHT22;24910;53.248;-6.134;2023-02-28T10:31:13;9.20;76.20
38684;DHT22;24910;53.248;-6.134;2023-02-28T10:33:44;9.30;76.00
38684;DHT22;24910;53.248;-6.134;2023-02-28T10:36:17;9.40;75.70
38684;DHT22;24910;53.248;-6.134;2023-02-28T10:38:51;9.50;75.70
38684;DHT22;24910;53.248;-6.134;2023-02-28T10:41:32;9.60;75.40
38684;DHT22;24910;53.248;-6.134;2023-02-28T10:44:15;9.50;75.10
38684;DHT22;24910;53.248;-6.134;2023-02-28T10:46:46;9.50;74.60
38684;DHT22;24910;53.248;-6.134;2023-02-28T10:49:20;9.50;74.50
38684;DHT22;24910;53.248;-6.134;2023-02-28T10:51:52;9.50;74.00
38684;DHT22;24910;53.248;-6.134;2023-02-28T10:54:27;9.50;73.20
38684;DHT22;24910;53.248;-6.134;2023-02-28T10:57:14;9.50;72.90
38684;DHT22;24910;53.248;-6.134;2023-02-28T10:59:45;9.50;72.90
38684;DHT22;24910;53.248;-6.134;2023-02-28T11:02:30;9.60;73.20
38684;DHT22;24910;53.248;-6.134;2023-02-28T11:05:01;9.60;73.70
38684;DHT22;24910;53.248;-6.134;2023-02-28T11:07:31;9.70;74.00
38684;DHT22;24910;53.248;-6.134;2023-02-28T11:10:20;9.80;74.10
38684;DHT22;24910;53.248;-6.134;2023-02-28T11:12:55;9.80;74.10
38684;DHT22;24910;53.248;-6.134;2023-02-28T11:15:28;9.80;74.00
38684;DHT22;24910;53.248;-6.134;2023-02-28T11:18:00;9.80;74.00
38684;DHT22;24910;53.248;-6.134;2023-02-28T11:20:32;9.70;74.30
38684;DHT22;24910;53.248;-6.134;2023-02-28T11:23:04;9.70;74.70
38684;DHT22;24910;53.248;-6.134;2023-02-28T11:25:36;9.60;74.90
38684;DHT22;24910;53.248;-6.134;2023-02-28T11:28:24;9.60;75.40
38684;DHT22;24910;53.248;-6.134;2023-02-28T11:31:03;9.50;76.00
38684;DHT22;24910;53.248;-6.134;2023-02-28T11:33:40;9.50;76.50
38684;DHT22;24910;53.248;-6.134;2023-02-28T11:36:11;9.50;77.00
38684;DHT22;24910;53.248;-6.134;2023-02-28T11:38:43;9.30;77.60
38684;DHT22;24910;53.248;-6.134;2023-02-28T11:41:31;9.20;78.40
38684;DHT22;24910;53.248;-6.134;2023-02-28T11:47:06;9.10;79.50
38684;DHT22;24910;53.248;-6.134;2023-02-28T11:49:45;9.10;79.50
38684;DHT22;24910;53.248;-6.134;2023-02-28T11:52:21;9.10;79.60
38684;DHT22;24910;53.248;-6.134;2023-02-28T11:55:07;9.10;79.60
38684;DHT22;24910;53.248;-6.134;2023-02-28T12:00:40;9.20;79.60
38684;DHT22;24910;53.248;-6.134;2023-02-28T12:03:23;9.20;79.50
38684;DHT22;24910;53.248;-6.134;2023-02-28T12:06:03;9.30;79.40
38684;DHT22;24910;53.248;-6.134;2023-02-28T12:08:47;9.30;79.20
38684;DHT22;24910;53.248;-6.134;2023-02-28T12:11:29;9.30;79.20
38684;DHT22;24910;53.248;-6.134;2023-02-28T12:14:14;9.10;79.10
38684;DHT22;24910;53.248;-6.134;2023-02-28T12:16:59;9.00;79.20
38684;DHT22;24910;53.248;-6.134;2023-02-28T12:19:38;8.90;79.30
38684;DHT22;24910;53.248;-6.134;2023-02-28T12:25:39;8.90;79.20
38684;DHT22;24910;53.248;-6.134;2023-02-28T12:28:16;9.00;79.20
38684;DHT22;24910;53.248;-6.134;2023-02-28T12:30:51;9.10;79.10
38684;DHT22;24910;53.248;-6.134;2023-02-28T12:33:24;9.20;79.00
38684;DHT22;24910;53.248;-6.134;2023-02-28T12:35:59;9.20;78.70
38684;DHT22;24910;53.248;-6.134;2023-02-28T12:38:31;9.20;78.30
38684;DHT22;24910;53.248;-6.134;2023-02-28T12:41:05;9.20;78.30
38684;DHT22;24910;53.248;-6.134;2023-02-28T12:43:45;9.10;78.20
38684;DHT22;24910;53.248;-6.134;2023-02-28T12:46:19;9.00;78.20
38684;DHT22;24910;53.248;-6.134;2023-02-28T12:48:53;8.90;78.20
38684;DHT22;24910;53.248;-6.134;2023-02-28T12:51:26;8.80;78.30
38684;DHT22;24910;53.248;-6.134;2023-02-28T12:54:07;8.80;78.70
38684;DHT22;24910;53.248;-6.134;2023-02-28T12:56:44;8.80;79.00
38684;DHT22;24910;53.248;-6.134;2023-02-28T12:59:25;8.90;79.30
38684;DHT22;24910;53.248;-6.134;2023-02-28T13:02:09;8.90;79.20
38684;DHT22;24910;53.248;-6.134;2023-02-28T13:05:02;8.90;79.10
38684;DHT22;24910;53.248;-6.134;2023-02-28T13:07:56;9.00;79.10
38684;DHT22;24910;53.248;-6.134;2023-02-28T13:10:39;9.10;78.50
38684;DHT22;24910;53.248;-6.134;2023-02-28T13:13:14;9.20;78.20
38684;DHT22;24910;53.248;-6.134;2023-02-28T13:16:00;9.20;77.90
38684;DHT22;24910;53.248;-6.134;2023-02-28T13:18:34;9.30;77.50
38684;DHT22;24910;53.248;-6.134;2023-02-28T13:21:06;9.30;77.20
38684;DHT22;24910;53.248;-6.134;2023-02-28T13:29:41;9.30;76.30
38684;DHT22;24910;53.248;-6.134;2023-02-28T13:32:34;9.30;76.20
38684;DHT22;24910;53.248;-6.134;2023-02-28T13:38:31;9.10;76.30
38684;DHT22;24910;53.248;-6.134;2023-02-28T13:44:18;9.00;77.00
38684;DHT22;24910;53.248;-6.134;2023-02-28T13:47:20;9.00;77.50
38684;DHT22;24910;53.248;-6.134;2023-02-28T13:49:51;8.90;77.90
38684;DHT22;24910;53.248;-6.134;2023-02-28T13:52:23;9.00;78.00
38684;DHT22;24910;53.248;-6.134;2023-02-28T13:54:59;8.90;77.90
38684;DHT22;24910;53.248;-6.134;2023-02-28T13:57:41;8.90;77.90
38684;DHT22;24910;53.248;-6.134;2023-02-28T14:00:21;8.90;77.60
38684;DHT22;24910;53.248;-6.134;2023-02-28T14:03:09;8.90;77.40
38684;DHT22;24910;53.248;-6.134;2023-02-28T14:05:47;8.90;76.90
38684;DHT22;24910;53.248;-6.134;2023-02-28T14:08:19;8.90;76.50
38684;DHT22;24910;53.248;-6.134;2023-02-28T14:10:51;9.00;76.20
38684;DHT22;24910;53.248;-6.134;2023-02-28T14:13:41;8.90;75.80
38684;DHT22;24910;53.248;-6.134;2023-02-28T14:16:14;8.90;75.30
38684;DHT22;24910;53.248;-6.134;2023-02-28T14:18:49;9.00;75.10
38684;DHT22;24910;53.248;-6.134;2023-02-28T14:21:24;9.00;75.00
38684;DHT22;24910;53.248;-6.134;2023-02-28T14:24:13;9.00;74.70
38684;DHT22;24910;53.248;-6.134;2023-02-28T14:27:11;9.00;74.30
38684;DHT22;24910;53.248;-6.134;2023-02-28T14:33:00;8.90;75.00
38684;DHT22;24910;53.248;-6.134;2023-02-28T14:35:43;9.00;75.50
38684;DHT22;24910;53.248;-6.134;2023-02-28T14:38:18;9.00;75.70
38684;DHT22;24910;53.248;-6.134;2023-02-28T14:40:51;9.00;75.90
38684;DHT22;24910;53.248;-6.134;2023-02-28T14:43:23;9.00;76.00
38684;DHT22;24910;53.248;-6.134;2023-02-28T14:45:56;9.00;75.90
38684;DHT22;24910;53.248;-6.134;2023-02-28T14:48:32;9.00;75.80
38684;DHT22;24910;53.248;-6.134;2023-02-28T14:51:01;9.00;75.80
38684;DHT22;24910;53.248;-6.134;2023-02-28T14:53:36;8.90;75.60
38684;DHT22;24910;53.248;-6.134;2023-02-28T14:56:16;8.80;75.40
38684;DHT22;24910;53.248;-6.134;2023-02-28T14:58:51;8.80;75.50
38684;DHT22;24910;53.248;-6.134;2023-02-28T15:01:22;8.80;75.40
38684;DHT22;24910;53.248;-6.134;2023-02-28T15:04:00;8.70;75.40
38684;DHT22;24910;53.248;-6.134;2023-02-28T15:06:31;8.70;75.50
38684;DHT22;24910;53.248;-6.134;2023-02-28T15:09:10;8.80;75.60
38684;DHT22;24910;53.248;-6.134;2023-02-28T15:11:40;8.70;75.70
38684;DHT22;24910;53.248;-6.134;2023-02-28T15:14:16;8.80;75.80
38684;DHT22;24910;53.248;-6.134;2023-02-28T15:16:51;8.80;75.90
38684;DHT22;24910;53.248;-6.134;2023-02-28T15:19:24;8.80;76.00
38684;DHT22;24910;53.248;-6.134;2023-02-28T15:21:58;8.80;76.00
38684;DHT22;24910;53.248;-6.134;2023-02-28T15:24:36;8.80;75.90
38684;DHT22;24910;53.248;-6.134;2023-02-28T15:27:10;8.80;75.90
38684;DHT22;24910;53.248;-6.134;2023-02-28T15:29:44;8.80;75.90
38684;DHT22;24910;53.248;-6.134;2023-02-28T15:32:25;8.80;75.80
38684;DHT22;24910;53.248;-6.134;2023-02-28T15:34:56;8.80;75.60
38684;DHT22;24910;53.248;-6.134;2023-02-28T15:37:40;8.80;75.60
38684;DHT22;24910;53.248;-6.134;2023-02-28T15:40:17;8.80;75.40
38684;DHT22;24910;53.248;-6.134;2023-02-28T15:43:13;8.80;75.20
38684;DHT22;24910;53.248;-6.134;2023-02-28T15:45:46;8.80;75.00
38684;DHT22;24910;53.248;-6.134;2023-02-28T15:48:18;8.80;74.90
38684;DHT22;24910;53.248;-6.134;2023-02-28T15:50:50;8.80;75.00
38684;DHT22;24910;53.248;-6.134;2023-02-28T15:53:23;8.80;75.10
38684;DHT22;24910;53.248;-6.134;2023-02-28T15:55:58;8.80;75.40
38684;DHT22;24910;53.248;-6.134;2023-02-28T15:58:29;8.80;75.60
38684;DHT22;24910;53.248;-6.134;2023-02-28T16:01:07;8.80;75.80
38684;DHT22;24910;53.248;-6.134;2023-02-28T16:03:42;8.70;76.00
38684;DHT22;24910;53.248;-6.134;2023-02-28T16:06:42;8.80;76.30
38684;DHT22;24910;53.248;-6.134;2023-02-28T16:09:13;8.70;76.50
38684;DHT22;24910;53.248;-6.134;2023-02-28T16:11:46;8.70;76.60
38684;DHT22;24910;53.248;-6.134;2023-02-28T16:14:17;8.70;76.50
38684;DHT22;24910;53.248;-6.134;2023-02-28T16:16:50;8.60;76.40
38684;DHT22;24910;53.248;-6.134;2023-02-28T16:19:21;8.60;76.40
38684;DHT22;24910;53.248;-6.134;2023-02-28T16:21:50;8.60;76.50
38684;DHT22;24910;53.248;-6.134;2023-02-28T16:24:19;8.60;76.50
38684;DHT22;24910;53.248;-6.134;2023-02-28T16:26:52;8.60;76.50
38684;DHT22;24910;53.248;-6.134;2023-02-28T16:29:25;8.60;76.40
38684;DHT22;24910;53.248;-6.134;2023-02-28T16:31:56;8.60;76.30
38684;DHT22;24910;53.248;-6.134;2023-02-28T16:34:25;8.70;76.20
38684;DHT22;24910;53.248;-6.134;2023-02-28T16:36:54;8.60;76.20
38684;DHT22;24910;53.248;-6.134;2023-02-28T16:39:24;8.60;76.30
38684;DHT22;24910;53.248;-6.134;2023-02-28T16:41:54;8.60;76.50
38684;DHT22;24910;53.248;-6.134;2023-02-28T16:44:27;8.60;76.60
38684;DHT22;24910;53.248;-6.134;2023-02-28T16:46:59;8.60;76.70